Iwanui, Waitara Historical Data
Daily Summary for November 10, 2018 Units:  Both    English   Metric
« Previous Day
Next Day »
Daily Weekly Monthly Yearly Custom
  High: Low: Average:
Temperature: 71.6 °F /  22 °C 43.2 °F /  6.2 °C 58.1 °F /  14.5 °C
Dew Point: 55.1 °F /  12.8 °C 40.4 °F /  4.7 °C 45.7 °F /  7.6 °C
Humidity: 95% 39% 67%
Wind Speed: 12.1mph /  19.5km/h - 3.4mph /  5.5km/h
Wind Gust: 19.7mph /  31.7km/h - -
Wind- - SSE
Pressure: 30.20 in /  1022.6 hPa 29.96 in /  1014.4 hPa -
Precipitation: 0.01 in /  0.25 mm    
Historical Graphs
 
 
Tabular Data for November 10, 2018
Time Temperature Dew Point Pressure Wind Wind Speed Wind Gust Humidity Rainfall Rate (Hourly)
00:04 50.2 °F /  10.1 °C 48.0 °F /  8.9 °C 29.97in /  1014.8hPa North 0.7mph /  1.1km/h 3.8mph /  6.1km/h 92% 0.00in /  0mm
00:09 50.2 °F /  10.1 °C 48.0 °F /  8.9 °C 29.97in /  1014.8hPa NNE 2.2mph /  3.5km/h 4.5mph /  7.2km/h 92% 0.00in /  0mm
00:14 50.4 °F /  10.2 °C 48.1 °F /  8.9 °C 29.96in /  1014.4hPa NNE 5.4mph /  8.7km/h 6.9mph /  11.1km/h 92% 0.00in /  0mm
00:19 50.7 °F /  10.4 °C 48.8 °F /  9.3 °C 29.96in /  1014.4hPa NNE 3.1mph /  5km/h 6.9mph /  11.1km/h 93% 0.00in /  0mm
00:24 51.1 °F /  10.6 °C 48.8 °F /  9.3 °C 29.96in /  1014.4hPa NE 4.5mph /  7.2km/h 6.9mph /  11.1km/h 92% 0.00in /  0mm
00:29 51.3 °F /  10.7 °C 49.0 °F /  9.4 °C 29.96in /  1014.4hPa NE 3.1mph /  5km/h 9.8mph /  15.8km/h 92% 0.00in /  0mm
00:34 51.3 °F /  10.7 °C 49.0 °F /  9.4 °C 29.96in /  1014.4hPa ENE 3.8mph /  6.1km/h 9.8mph /  15.8km/h 92% 0.00in /  0mm
00:39 51.1 °F /  10.6 °C 48.5 °F /  9.2 °C 29.96in /  1014.4hPa East 1.6mph /  2.6km/h 6.9mph /  11.1km/h 91% 0.00in /  0mm
00:44 50.7 °F /  10.4 °C 48.2 °F /  9 °C 29.97in /  1014.8hPa Calm   6.0mph /  9.7km/h 91% 0.00in /  0mm
00:50 50.2 °F /  10.1 °C 47.7 °F /  8.7 °C 29.97in /  1014.8hPa SSW 1.6mph /  2.6km/h 2.2mph /  3.5km/h 91% 0.00in /  0mm
00:54 49.8 °F /  9.9 °C 47.6 °F /  8.7 °C 29.97in /  1014.8hPa Calm   2.2mph /  3.5km/h 92% 0.00in /  0mm
00:59 49.3 °F /  9.6 °C 46.8 °F /  8.2 °C 29.97in /  1014.8hPa Calm   3.1mph /  5km/h 91% 0.00in /  0mm
01:04 48.9 °F /  9.4 °C 46.4 °F /  8 °C 29.97in /  1014.8hPa West 0.7mph /  1.1km/h 3.1mph /  5km/h 91% 0.00in /  0mm
01:10 48.7 °F /  9.3 °C 46.2 °F /  7.9 °C 29.97in /  1014.8hPa SW 0.7mph /  1.1km/h 3.1mph /  5km/h 91% 0.00in /  0mm
01:14 48.4 °F /  9.1 °C 45.9 °F /  7.7 °C 29.97in /  1014.8hPa SE 0.7mph /  1.1km/h 3.1mph /  5km/h 91% 0.00in /  0mm
01:19 48.4 °F /  9.1 °C 45.9 °F /  7.7 °C 29.97in /  1014.8hPa SSE 1.6mph /  2.6km/h 3.1mph /  5km/h 91% 0.00in /  0mm
01:25 48.4 °F /  9.1 °C 45.9 °F /  7.7 °C 29.97in /  1014.8hPa SE 1.6mph /  2.6km/h 3.1mph /  5km/h 91% 0.00in /  0mm
01:29 48.0 °F /  8.9 °C 45.8 °F /  7.7 °C 29.97in /  1014.8hPa SE 0.7mph /  1.1km/h 3.1mph /  5km/h 92% 0.00in /  0mm
01:34 47.8 °F /  8.8 °C 45.6 °F /  7.6 °C 29.97in /  1014.8hPa SSE 0.7mph /  1.1km/h 3.1mph /  5km/h 92% 0.00in /  0mm
01:40 47.5 °F /  8.6 °C 45.3 °F /  7.4 °C 29.97in /  1014.8hPa SE 3.1mph /  5km/h 5.4mph /  8.7km/h 92% 0.00in /  0mm
01:44 47.7 °F /  8.7 °C 45.5 °F /  7.5 °C 29.97in /  1014.8hPa SSE 2.2mph /  3.5km/h 5.4mph /  8.7km/h 92% 0.00in /  0mm
01:50 47.7 °F /  8.7 °C 45.5 °F /  7.5 °C 29.97in /  1014.8hPa Calm   4.5mph /  7.2km/h 92% 0.00in /  0mm
01:55 47.3 °F /  8.5 °C 45.1 °F /  7.3 °C 29.98in /  1015.1hPa SSW 2.2mph /  3.5km/h 4.5mph /  7.2km/h 92% 0.00in /  0mm
01:59 47.1 °F /  8.4 °C 44.9 °F /  7.2 °C 29.98in /  1015.1hPa SSW 2.2mph /  3.5km/h 6.0mph /  9.7km/h 92% 0.00in /  0mm
02:04 47.5 °F /  8.6 °C 45.6 °F /  7.6 °C 29.98in /  1015.1hPa SSW 1.6mph /  2.6km/h 8.3mph /  13.4km/h 93% 0.00in /  0mm
02:09 47.5 °F /  8.6 °C 45.6 °F /  7.6 °C 29.98in /  1015.1hPa SSW 3.8mph /  6.1km/h 8.3mph /  13.4km/h 93% 0.00in /  0mm
02:14 47.5 °F /  8.6 °C 45.6 °F /  7.6 °C 29.98in /  1015.1hPa South 2.2mph /  3.5km/h 4.5mph /  7.2km/h 93% 0.00in /  0mm
02:20 47.5 °F /  8.6 °C 45.6 °F /  7.6 °C 29.98in /  1015.1hPa South 1.6mph /  2.6km/h 4.5mph /  7.2km/h 93% 0.00in /  0mm
02:25 47.5 °F /  8.6 °C 45.6 °F /  7.6 °C 29.98in /  1015.1hPa Calm   3.8mph /  6.1km/h 93% 0.00in /  0mm
02:29 47.5 °F /  8.6 °C 45.6 °F /  7.6 °C 29.98in /  1015.1hPa Calm   2.2mph /  3.5km/h 93% 0.00in /  0mm
02:35 47.5 °F /  8.6 °C 45.6 °F /  7.6 °C 29.99in /  1015.5hPa Calm   0.7mph /  1.1km/h 93% 0.00in /  0mm
02:39 47.7 °F /  8.7 °C 45.7 °F /  7.6 °C 29.99in /  1015.5hPa SSW 0.7mph /  1.1km/h 1.6mph /  2.6km/h 93% 0.00in /  0mm
02:45 47.8 °F /  8.8 °C 45.9 °F /  7.7 °C 29.99in /  1015.5hPa Calm   1.6mph /  2.6km/h 93% 0.00in /  0mm
02:50 47.8 °F /  8.8 °C 46.2 °F /  7.9 °C 29.99in /  1015.5hPa SSW 1.6mph /  2.6km/h 3.1mph /  5km/h 94% 0.00in /  0mm
02:55 48.0 °F /  8.9 °C 46.4 °F /  8 °C 29.99in /  1015.5hPa Calm   3.1mph /  5km/h 94% 0.00in /  0mm
02:59 48.0 °F /  8.9 °C 46.4 °F /  8 °C 29.98in /  1015.1hPa Calm   3.1mph /  5km/h 94% 0.00in /  0mm
03:05 48.0 °F /  8.9 °C 46.4 °F /  8 °C 29.98in /  1015.1hPa Calm     94% 0.00in /  0mm
03:09 47.5 °F /  8.6 °C 45.8 °F /  7.7 °C 29.98in /  1015.1hPa Calm     94% 0.00in /  0mm
03:14 47.3 °F /  8.5 °C 45.7 °F /  7.6 °C 29.98in /  1015.1hPa ENE 1.6mph /  2.6km/h 2.2mph /  3.5km/h 94% 0.00in /  0mm
03:20 47.1 °F /  8.4 °C 45.5 °F /  7.5 °C 29.99in /  1015.5hPa Calm   2.2mph /  3.5km/h 94% 0.00in /  0mm
03:25 46.2 °F /  7.9 °C 44.3 °F /  6.8 °C 29.99in /  1015.5hPa ESE 0.7mph /  1.1km/h 2.2mph /  3.5km/h 93% 0.01in /  0.25mm
03:30 45.5 °F /  7.5 °C 43.6 °F /  6.4 °C 29.99in /  1015.5hPa East 0.7mph /  1.1km/h 3.1mph /  5km/h 93% 0.01in /  0.25mm
03:35 45.5 °F /  7.5 °C 43.6 °F /  6.4 °C 29.99in /  1015.5hPa Calm   3.1mph /  5km/h 93% 0.01in /  0.25mm
03:39 45.5 °F /  7.5 °C 43.6 °F /  6.4 °C 29.99in /  1015.5hPa SE 1.6mph /  2.6km/h 3.8mph /  6.1km/h 93% 0.01in /  0.25mm
03:45 45.5 °F /  7.5 °C 43.6 °F /  6.4 °C 29.99in /  1015.5hPa SSE 1.6mph /  2.6km/h 3.8mph /  6.1km/h 93% 0.01in /  0.25mm
03:49 45.5 °F /  7.5 °C 43.6 °F /  6.4 °C 29.99in /  1015.5hPa SE 0.7mph /  1.1km/h 3.8mph /  6.1km/h 93% 0.01in /  0.25mm
03:54 45.5 °F /  7.5 °C 43.6 °F /  6.4 °C 29.99in /  1015.5hPa SSE 0.7mph /  1.1km/h 2.2mph /  3.5km/h 93% 0.01in /  0.25mm
04:00 45.5 °F /  7.5 °C 43.6 °F /  6.4 °C 30.00in /  1015.8hPa South 0.7mph /  1.1km/h 2.2mph /  3.5km/h 93% 0.01in /  0.25mm
04:05 45.5 °F /  7.5 °C 43.6 °F /  6.4 °C 30.00in /  1015.8hPa Calm   2.2mph /  3.5km/h 93% 0.01in /  0.25mm
04:09 45.5 °F /  7.5 °C 43.9 °F /  6.6 °C 30.00in /  1015.8hPa Calm   2.2mph /  3.5km/h 94% 0.01in /  0.25mm
04:14 45.3 °F /  7.4 °C 43.7 °F /  6.5 °C 29.99in /  1015.5hPa Calm   0.7mph /  1.1km/h 94% 0.01in /  0.25mm
04:19 45.1 °F /  7.3 °C 43.2 °F /  6.2 °C 30.00in /  1015.8hPa Calm   1.6mph /  2.6km/h 93% 0.01in /  0.25mm
04:25 45.1 °F /  7.3 °C 43.5 °F /  6.4 °C 30.00in /  1015.8hPa Calm   2.2mph /  3.5km/h 94% 0.00in /  0mm
04:29 45.1 °F /  7.3 °C 43.5 °F /  6.4 °C 29.99in /  1015.5hPa SSE 1.6mph /  2.6km/h 3.8mph /  6.1km/h 94% 0.00in /  0mm
04:34 45.5 °F /  7.5 °C 43.9 °F /  6.6 °C 30.00in /  1015.8hPa South 1.6mph /  2.6km/h 3.8mph /  6.1km/h 94% 0.00in /  0mm
04:39 45.5 °F /  7.5 °C 43.9 °F /  6.6 °C 30.00in /  1015.8hPa SSE 1.6mph /  2.6km/h 3.8mph /  6.1km/h 94% 0.00in /  0mm
04:45 45.5 °F /  7.5 °C 43.9 °F /  6.6 °C 30.00in /  1015.8hPa SSE 3.1mph /  5km/h 6.9mph /  11.1km/h 94% 0.00in /  0mm
04:49 45.5 °F /  7.5 °C 43.9 °F /  6.6 °C 30.00in /  1015.8hPa SSE 3.1mph /  5km/h 6.9mph /  11.1km/h 94% 0.00in /  0mm
04:54 45.5 °F /  7.5 °C 43.9 °F /  6.6 °C 30.01in /  1016.1hPa SSE 1.6mph /  2.6km/h 6.9mph /  11.1km/h 94% 0.00in /  0mm
04:59 45.5 °F /  7.5 °C 43.9 °F /  6.6 °C 30.01in /  1016.1hPa South 1.6mph /  2.6km/h 4.5mph /  7.2km/h 94% 0.00in /  0mm
05:05 45.5 °F /  7.5 °C 43.9 °F /  6.6 °C 30.01in /  1016.1hPa Calm   3.1mph /  5km/h 94% 0.00in /  0mm
05:10 45.1 °F /  7.3 °C 43.5 °F /  6.4 °C 30.01in /  1016.1hPa SSW 1.6mph /  2.6km/h 2.2mph /  3.5km/h 94% 0.00in /  0mm
05:14 44.8 °F /  7.1 °C 43.2 °F /  6.2 °C 30.02in /  1016.5hPa Calm   2.2mph /  3.5km/h 94% 0.00in /  0mm
05:20 44.4 °F /  6.9 °C 43.1 °F /  6.2 °C 30.01in /  1016.1hPa Calm   2.2mph /  3.5km/h 95% 0.00in /  0mm
05:24 44.1 °F /  6.7 °C 42.7 °F /  5.9 °C 30.02in /  1016.5hPa SSW 0.7mph /  1.1km/h 1.6mph /  2.6km/h 95% 0.00in /  0mm
05:29 43.9 °F /  6.6 °C 42.5 °F /  5.8 °C 30.02in /  1016.5hPa Calm   1.6mph /  2.6km/h 95% 0.00in /  0mm
05:35 43.7 °F /  6.5 °C 42.4 °F /  5.8 °C 30.02in /  1016.5hPa Calm   1.6mph /  2.6km/h 95% 0.00in /  0mm
05:39 43.7 °F /  6.5 °C 42.4 °F /  5.8 °C 30.02in /  1016.5hPa Calm   0.7mph /  1.1km/h 95% 0.00in /  0mm
05:44 43.7 °F /  6.5 °C 42.4 °F /  5.8 °C 30.02in /  1016.5hPa Calm   0.7mph /  1.1km/h 95% 0.00in /  0mm
05:49 43.5 °F /  6.4 °C 42.2 °F /  5.7 °C 30.02in /  1016.5hPa Calm   0.7mph /  1.1km/h 95% 0.00in /  0mm
05:54 43.5 °F /  6.4 °C 42.2 °F /  5.7 °C 30.02in /  1016.5hPa Calm   0.7mph /  1.1km/h 95% 0.00in /  0mm
05:59 43.3 °F /  6.3 °C 41.7 °F /  5.4 °C 30.03in /  1016.8hPa Calm   0.7mph /  1.1km/h 94% 0.00in /  0mm
06:05 43.2 °F /  6.2 °C 41.6 °F /  5.3 °C 30.03in /  1016.8hPa South 2.2mph /  3.5km/h 3.8mph /  6.1km/h 94% 0.00in /  0mm
06:10 43.5 °F /  6.4 °C 42.2 °F /  5.7 °C 30.03in /  1016.8hPa South 2.2mph /  3.5km/h 3.8mph /  6.1km/h 95% 0.00in /  0mm
06:14 43.9 °F /  6.6 °C 42.5 °F /  5.8 °C 30.03in /  1016.8hPa South 0.7mph /  1.1km/h 3.8mph /  6.1km/h 95% 0.00in /  0mm
06:20 43.9 °F /  6.6 °C 42.5 °F /  5.8 °C 30.03in /  1016.8hPa SSW 1.6mph /  2.6km/h 3.8mph /  6.1km/h 95% 0.00in /  0mm
06:25 43.9 °F /  6.6 °C 42.5 °F /  5.8 °C 30.03in /  1016.8hPa Calm   3.1mph /  5km/h 95% 0.00in /  0mm
06:29 43.7 °F /  6.5 °C 42.4 °F /  5.8 °C 30.04in /  1017.2hPa SSW 0.7mph /  1.1km/h 2.2mph /  3.5km/h 95% 0.00in /  0mm
06:34 43.7 °F /  6.5 °C 42.4 °F /  5.8 °C 30.04in /  1017.2hPa Calm   2.2mph /  3.5km/h 95% 0.00in /  0mm
06:40 43.7 °F /  6.5 °C 42.4 °F /  5.8 °C 30.04in /  1017.2hPa Calm   1.6mph /  2.6km/h 95% 0.00in /  0mm
06:45 44.1 °F /  6.7 °C 42.7 °F /  5.9 °C 30.04in /  1017.2hPa Calm   2.2mph /  3.5km/h 95% 0.00in /  0mm
06:49 44.4 °F /  6.9 °C 43.1 °F /  6.2 °C 30.04in /  1017.2hPa SSE 0.7mph /  1.1km/h 2.2mph /  3.5km/h 95% 0.00in /  0mm
06:54 44.8 °F /  7.1 °C 43.4 °F /  6.3 °C 30.04in /  1017.2hPa Calm   2.2mph /  3.5km/h 95% 0.00in /  0mm
06:59 46.2 °F /  7.9 °C 44.9 °F /  7.2 °C 30.05in /  1017.5hPa Calm   2.2mph /  3.5km/h 95% 0.00in /  0mm
07:04 48.0 °F /  8.9 °C 46.7 °F /  8.2 °C 30.05in /  1017.5hPa SSW 1.6mph /  2.6km/h 4.5mph /  7.2km/h 95% 0.00in /  0mm
07:09 48.7 °F /  9.3 °C 47.1 °F /  8.4 °C 30.05in /  1017.5hPa Calm   5.4mph /  8.7km/h 94% 0.00in /  0mm
07:14 50.5 °F /  10.3 °C 48.9 °F /  9.4 °C 30.06in /  1017.8hPa SE 0.7mph /  1.1km/h 5.4mph /  8.7km/h 94% 0.00in /  0mm
07:20 51.3 °F /  10.7 °C 49.6 °F /  9.8 °C 30.06in /  1017.8hPa SSE 1.6mph /  2.6km/h 3.8mph /  6.1km/h 94% 0.00in /  0mm
07:24 52.3 °F /  11.3 °C 50.4 °F /  10.2 °C 30.06in /  1017.8hPa SSW 0.7mph /  1.1km/h 3.8mph /  6.1km/h 93% 0.00in /  0mm
07:29 53.4 °F /  11.9 °C 51.2 °F /  10.7 °C 30.06in /  1017.8hPa SSW 2.2mph /  3.5km/h 3.1mph /  5km/h 92% 0.00in /  0mm
07:34 53.4 °F /  11.9 °C 50.9 °F /  10.5 °C 30.06in /  1017.8hPa Calm   3.1mph /  5km/h 91% 0.00in /  0mm
07:39 53.2 °F /  11.8 °C 50.7 °F /  10.4 °C 30.07in /  1018.2hPa Calm   3.1mph /  5km/h 91% 0.00in /  0mm
07:44 52.7 °F /  11.5 °C 49.9 °F /  9.9 °C 30.07in /  1018.2hPa SSE 0.7mph /  1.1km/h 3.1mph /  5km/h 90% 0.00in /  0mm
07:50 52.7 °F /  11.5 °C 49.9 °F /  9.9 °C 30.07in /  1018.2hPa SSE 0.7mph /  1.1km/h 3.1mph /  5km/h 90% 0.00in /  0mm
07:55 52.7 °F /  11.5 °C 49.9 °F /  9.9 °C 30.07in /  1018.2hPa SSE 3.1mph /  5km/h 4.5mph /  7.2km/h 90% 0.00in /  0mm
07:59 52.7 °F /  11.5 °C 49.9 °F /  9.9 °C 30.07in /  1018.2hPa SSE 2.2mph /  3.5km/h 4.5mph /  7.2km/h 90% 0.00in /  0mm
08:04 53.2 °F /  11.8 °C 50.1 °F /  10.1 °C 30.07in /  1018.2hPa SSE 0.7mph /  1.1km/h 4.5mph /  7.2km/h 89% 0.00in /  0mm
08:09 54.1 °F /  12.3 °C 50.7 °F /  10.4 °C 30.08in /  1018.5hPa South 1.6mph /  2.6km/h 3.8mph /  6.1km/h 88% 0.00in /  0mm
08:14 54.7 °F /  12.6 °C 50.9 °F /  10.5 °C 30.08in /  1018.5hPa Calm   3.1mph /  5km/h 87% 0.00in /  0mm
08:20 58.3 °F /  14.6 °C 54.1 °F /  12.3 °C 30.08in /  1018.5hPa SSE 1.6mph /  2.6km/h 3.8mph /  6.1km/h 86% 0.00in /  0mm
08:24 60.3 °F /  15.7 °C 55.1 °F /  12.8 °C 30.08in /  1018.5hPa SSE 2.2mph /  3.5km/h 6.0mph /  9.7km/h 83% 0.00in /  0mm
08:29 59.4 °F /  15.2 °C 52.2 °F /  11.2 °C 30.08in /  1018.5hPa Calm   6.0mph /  9.7km/h 77% 0.00in /  0mm
08:35 59.4 °F /  15.2 °C 51.1 °F /  10.6 °C 30.07in /  1018.2hPa ESE 2.2mph /  3.5km/h 3.8mph /  6.1km/h 74% 0.00in /  0mm
08:39 61.9 °F /  16.6 °C 52.8 °F /  11.6 °C 30.08in /  1018.5hPa East 0.7mph /  1.1km/h 3.8mph /  6.1km/h 72% 0.00in /  0mm
08:45 64.8 °F /  18.2 °C 53.2 °F /  11.8 °C 30.08in /  1018.5hPa ESE 3.1mph /  5km/h 4.5mph /  7.2km/h 66% 0.00in /  0mm
08:49 64.9 °F /  18.3 °C 51.6 °F /  10.9 °C 30.08in /  1018.5hPa SE 0.7mph /  1.1km/h 4.5mph /  7.2km/h 62% 0.00in /  0mm
08:54 65.3 °F /  18.5 °C 51.5 °F /  10.8 °C 30.08in /  1018.5hPa SE 1.6mph /  2.6km/h 4.5mph /  7.2km/h 61% 0.00in /  0mm
08:59 65.8 °F /  18.8 °C 51.1 °F /  10.6 °C 30.08in /  1018.5hPa East 0.7mph /  1.1km/h 4.5mph /  7.2km/h 59% 0.00in /  0mm
09:05 65.1 °F /  18.4 °C 49.5 °F /  9.7 °C 30.09in /  1018.8hPa ESE 1.6mph /  2.6km/h 5.4mph /  8.7km/h 57% 0.00in /  0mm
09:09 63.9 °F /  17.7 °C 48.8 °F /  9.3 °C 30.09in /  1018.8hPa SE 3.1mph /  5km/h 6.0mph /  9.7km/h 58% 0.00in /  0mm
09:14 62.6 °F /  17 °C 47.6 °F /  8.7 °C 30.09in /  1018.8hPa ESE 1.6mph /  2.6km/h 6.0mph /  9.7km/h 58% 0.00in /  0mm
09:19 63.1 °F /  17.3 °C 48.6 °F /  9.2 °C 30.09in /  1018.8hPa ESE 3.1mph /  5km/h 6.0mph /  9.7km/h 59% 0.00in /  0mm
09:25 63.3 °F /  17.4 °C 47.4 °F /  8.6 °C 30.09in /  1018.8hPa ESE 1.6mph /  2.6km/h 6.0mph /  9.7km/h 56% 0.00in /  0mm
09:29 63.5 °F /  17.5 °C 48.5 °F /  9.2 °C 30.09in /  1018.8hPa ESE 2.2mph /  3.5km/h 6.0mph /  9.7km/h 58% 0.00in /  0mm
09:34 63.3 °F /  17.4 °C 48.3 °F /  9.1 °C 30.09in /  1018.8hPa ESE 1.6mph /  2.6km/h 4.5mph /  7.2km/h 58% 0.00in /  0mm
09:39 63.1 °F /  17.3 °C 48.6 °F /  9.2 °C 30.09in /  1018.8hPa SE 2.2mph /  3.5km/h 6.9mph /  11.1km/h 59% 0.00in /  0mm
09:44 63.0 °F /  17.2 °C 48.9 °F /  9.4 °C 30.09in /  1018.8hPa SE 3.8mph /  6.1km/h 7.6mph /  12.2km/h 60% 0.00in /  0mm
09:49 62.4 °F /  16.9 °C 48.4 °F /  9.1 °C 30.09in /  1018.8hPa SE 3.1mph /  5km/h 7.6mph /  12.2km/h 60% 0.00in /  0mm
09:54 62.1 °F /  16.7 °C 47.6 °F /  8.7 °C 30.10in /  1019.2hPa SE 3.8mph /  6.1km/h 7.6mph /  12.2km/h 59% 0.00in /  0mm
10:00 62.2 °F /  16.8 °C 48.2 °F /  9 °C 30.10in /  1019.2hPa ESE 3.1mph /  5km/h 7.6mph /  12.2km/h 60% 0.00in /  0mm
10:05 62.2 °F /  16.8 °C 47.3 °F /  8.5 °C 30.10in /  1019.2hPa SE 0.7mph /  1.1km/h 6.0mph /  9.7km/h 58% 0.00in /  0mm
10:09 63.3 °F /  17.4 °C 46.9 °F /  8.3 °C 30.10in /  1019.2hPa East 2.2mph /  3.5km/h 3.8mph /  6.1km/h 55% 0.00in /  0mm
10:14 64.6 °F /  18.1 °C 47.6 °F /  8.7 °C 30.10in /  1019.2hPa ESE 2.2mph /  3.5km/h 3.8mph /  6.1km/h 54% 0.00in /  0mm
10:20 66.4 °F /  19.1 °C 47.7 °F /  8.7 °C 30.10in /  1019.2hPa SE 1.6mph /  2.6km/h 3.8mph /  6.1km/h 51% 0.00in /  0mm
10:24 67.1 °F /  19.5 °C 46.8 °F /  8.2 °C 30.11in /  1019.5hPa South 2.2mph /  3.5km/h 5.4mph /  8.7km/h 48% 0.00in /  0mm
10:29 66.7 °F /  19.3 °C 48.1 °F /  8.9 °C 30.10in /  1019.2hPa SSW 2.2mph /  3.5km/h 5.4mph /  8.7km/h 51% 0.00in /  0mm
10:35 67.1 °F /  19.5 °C 47.9 °F /  8.8 °C 30.11in /  1019.5hPa South 2.2mph /  3.5km/h 4.5mph /  7.2km/h 50% 0.00in /  0mm
10:40 67.1 °F /  19.5 °C 47.9 °F /  8.8 °C 30.11in /  1019.5hPa SSE 1.6mph /  2.6km/h 5.4mph /  8.7km/h 50% 0.00in /  0mm
10:44 68.0 °F /  20 °C 48.1 °F /  8.9 °C 30.10in /  1019.2hPa SSE 3.1mph /  5km/h 6.0mph /  9.7km/h 49% 0.00in /  0mm
10:49 67.5 °F /  19.7 °C 48.7 °F /  9.3 °C 30.11in /  1019.5hPa Calm   6.0mph /  9.7km/h 51% 0.00in /  0mm
10:54 67.3 °F /  19.6 °C 48.6 °F /  9.2 °C 30.11in /  1019.5hPa SSW 1.6mph /  2.6km/h 6.0mph /  9.7km/h 51% 0.00in /  0mm
11:00 67.3 °F /  19.6 °C 48.6 °F /  9.2 °C 30.11in /  1019.5hPa SSW 0.7mph /  1.1km/h 3.8mph /  6.1km/h 51% 0.00in /  0mm
11:04 67.3 °F /  19.6 °C 48.6 °F /  9.2 °C 30.11in /  1019.5hPa SW 0.7mph /  1.1km/h 3.8mph /  6.1km/h 51% 0.00in /  0mm
11:10 66.2 °F /  19 °C 48.6 °F /  9.2 °C 30.11in /  1019.5hPa SSW 0.7mph /  1.1km/h 7.6mph /  12.2km/h 53% 0.00in /  0mm
11:14 66.2 °F /  19 °C 49.1 °F /  9.5 °C 30.10in /  1019.2hPa SSW 1.6mph /  2.6km/h 7.6mph /  12.2km/h 54% 0.00in /  0mm
11:19 66.2 °F /  19 °C 49.1 °F /  9.5 °C 30.11in /  1019.5hPa WSW 1.6mph /  2.6km/h 5.4mph /  8.7km/h 54% 0.00in /  0mm
11:24 66.2 °F /  19 °C 49.6 °F /  9.8 °C 30.10in /  1019.2hPa SW 2.2mph /  3.5km/h 6.0mph /  9.7km/h 55% 0.00in /  0mm
11:29 66.6 °F /  19.2 °C 49.4 °F /  9.7 °C 30.10in /  1019.2hPa SSW 0.7mph /  1.1km/h 6.0mph /  9.7km/h 54% 0.00in /  0mm
11:34 67.5 °F /  19.7 °C 49.8 °F /  9.9 °C 30.11in /  1019.5hPa SSE 2.2mph /  3.5km/h 3.1mph /  5km/h 53% 0.00in /  0mm
11:39 68.9 °F /  20.5 °C 50.1 °F /  10.1 °C 30.11in /  1019.5hPa SE 0.7mph /  1.1km/h 4.5mph /  7.2km/h 51% 0.00in /  0mm
11:44 69.3 °F /  20.7 °C 49.8 °F /  9.9 °C 30.10in /  1019.2hPa East 0.7mph /  1.1km/h 4.5mph /  7.2km/h 50% 0.00in /  0mm
11:49 69.3 °F /  20.7 °C 49.8 °F /  9.9 °C 30.10in /  1019.2hPa SE 0.7mph /  1.1km/h 6.0mph /  9.7km/h 50% 0.00in /  0mm
11:55 69.8 °F /  21 °C 48.1 °F /  8.9 °C 30.10in /  1019.2hPa SE 0.7mph /  1.1km/h 6.0mph /  9.7km/h 46% 0.00in /  0mm
11:59 69.4 °F /  20.8 °C 48.9 °F /  9.4 °C 30.10in /  1019.2hPa East 1.6mph /  2.6km/h 6.0mph /  9.7km/h 48% 0.00in /  0mm
12:04 70.3 °F /  21.3 °C 50.3 °F /  10.2 °C 30.10in /  1019.2hPa SE 3.8mph /  6.1km/h 6.9mph /  11.1km/h 49% 0.00in /  0mm
12:09 70.0 °F /  21.1 °C 48.9 °F /  9.4 °C 30.10in /  1019.2hPa SE 3.1mph /  5km/h 7.6mph /  12.2km/h 47% 0.00in /  0mm
12:15 68.7 °F /  20.4 °C 48.3 °F /  9.1 °C 30.10in /  1019.2hPa SSE 1.6mph /  2.6km/h 9.2mph /  14.8km/h 48% 0.00in /  0mm
12:20 69.3 °F /  20.7 °C 48.2 °F /  9 °C 30.10in /  1019.2hPa South 2.2mph /  3.5km/h 9.2mph /  14.8km/h 47% 0.00in /  0mm
12:24 69.4 °F /  20.8 °C 47.2 °F /  8.4 °C 30.10in /  1019.2hPa SSW 4.5mph /  7.2km/h 9.8mph /  15.8km/h 45% 0.00in /  0mm
12:29 68.5 °F /  20.3 °C 47.5 °F /  8.6 °C 30.10in /  1019.2hPa South 5.4mph /  8.7km/h 11.4mph /  18.3km/h 47% 0.00in /  0mm
12:35 68.2 °F /  20.1 °C 47.2 °F /  8.4 °C 30.10in /  1019.2hPa South 3.1mph /  5km/h 11.4mph /  18.3km/h 47% 0.00in /  0mm
12:39 69.3 °F /  20.7 °C 48.2 °F /  9 °C 30.10in /  1019.2hPa South 4.5mph /  7.2km/h 11.4mph /  18.3km/h 47% 0.00in /  0mm
12:44 69.8 °F /  21 °C 46.3 °F /  7.9 °C 30.10in /  1019.2hPa South 3.1mph /  5km/h 9.2mph /  14.8km/h 43% 0.00in /  0mm
12:49 68.5 °F /  20.3 °C 44.6 °F /  7 °C 30.10in /  1019.2hPa SSW 3.8mph /  6.1km/h 13.0mph /  20.9km/h 42% 0.00in /  0mm
12:54 67.5 °F /  19.7 °C 44.8 °F /  7.1 °C 30.10in /  1019.2hPa South 3.1mph /  5km/h 13.0mph /  20.9km/h 44% 0.00in /  0mm
12:59 68.4 °F /  20.2 °C 45.6 °F /  7.6 °C 30.09in /  1018.8hPa South 1.6mph /  2.6km/h 8.3mph /  13.4km/h 44% 0.00in /  0mm
13:04 69.4 °F /  20.8 °C 46.0 °F /  7.8 °C 30.10in /  1019.2hPa South 4.5mph /  7.2km/h 6.9mph /  11.1km/h 43% 0.00in /  0mm
13:09 68.0 °F /  20 °C 43.4 °F /  6.3 °C 30.10in /  1019.2hPa South 3.1mph /  5km/h 8.3mph /  13.4km/h 41% 0.00in /  0mm
13:14 68.0 °F /  20 °C 45.9 °F /  7.7 °C 30.10in /  1019.2hPa South 1.6mph /  2.6km/h 8.3mph /  13.4km/h 45% 0.00in /  0mm
13:19 69.1 °F /  20.6 °C 46.3 °F /  7.9 °C 30.10in /  1019.2hPa South 3.1mph /  5km/h 6.9mph /  11.1km/h 44% 0.00in /  0mm
13:24 69.8 °F /  21 °C 45.1 °F /  7.3 °C 30.10in /  1019.2hPa SW 5.4mph /  8.7km/h 7.6mph /  12.2km/h 41% 0.00in /  0mm
13:29 69.1 °F /  20.6 °C 46.3 °F /  7.9 °C 30.10in /  1019.2hPa West 5.4mph /  8.7km/h 9.2mph /  14.8km/h 44% 0.00in /  0mm
13:35 69.6 °F /  20.9 °C 50.7 °F /  10.4 °C 30.10in /  1019.2hPa WSW 5.4mph /  8.7km/h 9.2mph /  14.8km/h 51% 0.00in /  0mm
13:40 70.3 °F /  21.3 °C 46.8 °F /  8.2 °C 30.10in /  1019.2hPa South 1.6mph /  2.6km/h 8.3mph /  13.4km/h 43% 0.00in /  0mm
13:44 71.1 °F /  21.7 °C 47.5 °F /  8.6 °C 30.11in /  1019.5hPa South 5.4mph /  8.7km/h 9.8mph /  15.8km/h 43% 0.00in /  0mm
13:49 71.2 °F /  21.8 °C 47.0 °F /  8.3 °C 30.10in /  1019.2hPa SSW 4.5mph /  7.2km/h 9.8mph /  15.8km/h 42% 0.00in /  0mm
13:55 71.6 °F /  22 °C 45.4 °F /  7.4 °C 30.10in /  1019.2hPa South 4.5mph /  7.2km/h 8.3mph /  13.4km/h 39% 0.00in /  0mm
13:59 70.2 °F /  21.2 °C 44.7 °F /  7.1 °C 30.10in /  1019.2hPa South 2.2mph /  3.5km/h 10.7mph /  17.2km/h 40% 0.00in /  0mm
14:04 70.2 °F /  21.2 °C 44.7 °F /  7.1 °C 30.10in /  1019.2hPa South 3.1mph /  5km/h 10.7mph /  17.2km/h 40% 0.00in /  0mm
14:09 70.3 °F /  21.3 °C 44.9 °F /  7.2 °C 30.11in /  1019.5hPa SE 1.6mph /  2.6km/h 9.8mph /  15.8km/h 40% 0.00in /  0mm
14:15 71.1 °F /  21.7 °C 45.5 °F /  7.5 °C 30.11in /  1019.5hPa SE 3.8mph /  6.1km/h 6.9mph /  11.1km/h 40% 0.00in /  0mm
14:20 69.1 °F /  20.6 °C 44.4 °F /  6.9 °C 30.11in /  1019.5hPa SSE 2.2mph /  3.5km/h 9.8mph /  15.8km/h 41% 0.00in /  0mm
14:24 70.2 °F /  21.2 °C 47.3 °F /  8.5 °C 30.10in /  1019.2hPa South 6.9mph /  11.1km/h 13.0mph /  20.9km/h 44% 0.00in /  0mm
14:29 70.9 °F /  21.6 °C 44.7 °F /  7.1 °C 30.11in /  1019.5hPa South 3.1mph /  5km/h 13.0mph /  20.9km/h 39% 0.00in /  0mm
14:34 71.2 °F /  21.8 °C 45.0 °F /  7.2 °C 30.10in /  1019.2hPa SSW 1.6mph /  2.6km/h 9.8mph /  15.8km/h 39% 0.00in /  0mm
14:39 71.1 °F /  21.7 °C 44.9 °F /  7.2 °C 30.10in /  1019.2hPa South 5.4mph /  8.7km/h 11.4mph /  18.3km/h 39% 0.00in /  0mm
14:44 69.3 °F /  20.7 °C 44.6 °F /  7 °C 30.10in /  1019.2hPa SSE 5.4mph /  8.7km/h 11.4mph /  18.3km/h 41% 0.00in /  0mm
14:49 68.9 °F /  20.5 °C 44.3 °F /  6.8 °C 30.10in /  1019.2hPa SSE 4.5mph /  7.2km/h 13.6mph /  21.9km/h 41% 0.00in /  0mm
14:55 68.0 °F /  20 °C 44.7 °F /  7.1 °C 30.10in /  1019.2hPa South 5.4mph /  8.7km/h 13.6mph /  21.9km/h 43% 0.00in /  0mm
14:59 67.6 °F /  19.8 °C 46.7 °F /  8.2 °C 30.10in /  1019.2hPa South 5.4mph /  8.7km/h 11.4mph /  18.3km/h 47% 0.00in /  0mm
15:05 69.6 °F /  20.9 °C 46.8 °F /  8.2 °C 30.10in /  1019.2hPa South 5.4mph /  8.7km/h 12.1mph /  19.5km/h 44% 0.00in /  0mm
15:10 70.3 °F /  21.3 °C 46.2 °F /  7.9 °C 30.10in /  1019.2hPa South 6.0mph /  9.7km/h 12.1mph /  19.5km/h 42% 0.00in /  0mm
15:15 70.9 °F /  21.6 °C 46.0 °F /  7.8 °C 30.10in /  1019.2hPa South 3.8mph /  6.1km/h 11.4mph /  18.3km/h 41% 0.00in /  0mm
15:19 71.6 °F /  22 °C 46.7 °F /  8.2 °C 30.10in /  1019.2hPa South 3.8mph /  6.1km/h 11.4mph /  18.3km/h 41% 0.00in /  0mm
15:24 70.9 °F /  21.6 °C 45.4 °F /  7.4 °C 30.09in /  1018.8hPa South 3.8mph /  6.1km/h 11.4mph /  18.3km/h 40% 0.00in /  0mm
15:29 70.7 °F /  21.5 °C 45.9 °F /  7.7 °C 30.09in /  1018.8hPa SSE 9.8mph /  15.8km/h 13.6mph /  21.9km/h 41% 0.00in /  0mm
15:35 70.0 °F /  21.1 °C 45.2 °F /  7.3 °C 30.09in /  1018.8hPa SSE 6.0mph /  9.7km/h 14.5mph /  23.3km/h 41% 0.00in /  0mm
15:39 70.3 °F /  21.3 °C 44.9 °F /  7.2 °C 30.09in /  1018.8hPa SSE 10.7mph /  17.2km/h 14.5mph /  23.3km/h 40% 0.00in /  0mm
15:45 70.2 °F /  21.2 °C 46.0 °F /  7.8 °C 30.09in /  1018.8hPa SE 6.9mph /  11.1km/h 13.6mph /  21.9km/h 42% 0.00in /  0mm
15:50 70.7 °F /  21.5 °C 47.1 °F /  8.4 °C 30.09in /  1018.8hPa SE 7.6mph /  12.2km/h 13.6mph /  21.9km/h 43% 0.00in /  0mm
15:54 70.7 °F /  21.5 °C 46.5 °F /  8.1 °C 30.09in /  1018.8hPa SE 9.8mph /  15.8km/h 13.6mph /  21.9km/h 42% 0.00in /  0mm
15:59 70.2 °F /  21.2 °C 45.4 °F /  7.4 °C 30.10in /  1019.2hPa SE 6.0mph /  9.7km/h 13.6mph /  21.9km/h 41% 0.00in /  0mm
16:04 69.6 °F /  20.9 °C 44.9 °F /  7.2 °C 30.10in /  1019.2hPa SE 3.1mph /  5km/h 16.8mph /  27km/h 41% 0.00in /  0mm
16:09 69.3 °F /  20.7 °C 44.6 °F /  7 °C 30.09in /  1018.8hPa SSE 4.5mph /  7.2km/h 16.8mph /  27km/h 41% 0.00in /  0mm
16:14 69.4 °F /  20.8 °C 45.4 °F /  7.4 °C 30.10in /  1019.2hPa SSE 4.5mph /  7.2km/h 13.6mph /  21.9km/h 42% 0.00in /  0mm
16:20 69.6 °F /  20.9 °C 44.9 °F /  7.2 °C 30.10in /  1019.2hPa SSE 6.0mph /  9.7km/h 14.5mph /  23.3km/h 41% 0.00in /  0mm
16:25 68.5 °F /  20.3 °C 43.3 °F /  6.3 °C 30.10in /  1019.2hPa South 5.4mph /  8.7km/h 19.0mph /  30.6km/h 40% 0.00in /  0mm
16:29 68.9 °F /  20.5 °C 44.9 °F /  7.2 °C 30.10in /  1019.2hPa SSE 6.0mph /  9.7km/h 19.0mph /  30.6km/h 42% 0.00in /  0mm
16:34 68.7 °F /  20.4 °C 44.7 °F /  7.1 °C 30.10in /  1019.2hPa SSE 9.2mph /  14.8km/h 17.4mph /  28km/h 42% 0.00in /  0mm
16:39 68.2 °F /  20.1 °C 44.2 °F /  6.8 °C 30.10in /  1019.2hPa South 9.8mph /  15.8km/h 18.3mph /  29.5km/h 42% 0.00in /  0mm
16:44 68.5 °F /  20.3 °C 44.6 °F /  7 °C 30.10in /  1019.2hPa South 10.7mph /  17.2km/h 18.3mph /  29.5km/h 42% 0.00in /  0mm
16:49 68.2 °F /  20.1 °C 44.2 °F /  6.8 °C 30.10in /  1019.2hPa SSE 9.8mph /  15.8km/h 17.4mph /  28km/h 42% 0.00in /  0mm
16:54 68.2 °F /  20.1 °C 44.2 °F /  6.8 °C 30.10in /  1019.2hPa South 8.3mph /  13.4km/h 17.4mph /  28km/h 42% 0.00in /  0mm
16:59 68.2 °F /  20.1 °C 43.6 °F /  6.4 °C 30.10in /  1019.2hPa South 4.5mph /  7.2km/h 15.9mph /  25.6km/h 41% 0.00in /  0mm
17:04 68.2 °F /  20.1 °C 43.0 °F /  6.1 °C 30.10in /  1019.2hPa South 9.2mph /  14.8km/h 19.7mph /  31.7km/h 40% 0.00in /  0mm
17:10 68.0 °F /  20 °C 42.8 °F /  6 °C 30.10in /  1019.2hPa SSE 6.0mph /  9.7km/h 19.7mph /  31.7km/h 40% 0.00in /  0mm
17:15 68.2 °F /  20.1 °C 43.6 °F /  6.4 °C 30.10in /  1019.2hPa SSE 9.2mph /  14.8km/h 16.8mph /  27km/h 41% 0.00in /  0mm
17:20 68.5 °F /  20.3 °C 43.9 °F /  6.6 °C 30.11in /  1019.5hPa SSE 8.3mph /  13.4km/h 16.8mph /  27km/h 41% 0.00in /  0mm
17:24 68.2 °F /  20.1 °C 43.6 °F /  6.4 °C 30.10in /  1019.2hPa South 3.8mph /  6.1km/h 16.8mph /  27km/h 41% 0.00in /  0mm
17:29 68.2 °F /  20.1 °C 43.0 °F /  6.1 °C 30.10in /  1019.2hPa SSE 6.0mph /  9.7km/h 14.5mph /  23.3km/h 40% 0.00in /  0mm
17:34 68.2 °F /  20.1 °C 43.6 °F /  6.4 °C 30.11in /  1019.5hPa SSE 7.6mph /  12.2km/h 13.6mph /  21.9km/h 41% 0.00in /  0mm
17:39 68.2 °F /  20.1 °C 43.6 °F /  6.4 °C 30.11in /  1019.5hPa SSE 5.4mph /  8.7km/h 12.1mph /  19.5km/h 41% 0.00in /  0mm
17:45 67.6 °F /  19.8 °C 43.7 °F /  6.5 °C 30.11in /  1019.5hPa SSE 4.5mph /  7.2km/h 15.2mph /  24.5km/h 42% 0.00in /  0mm
17:50 68.0 °F /  20 °C 43.4 °F /  6.3 °C 30.11in /  1019.5hPa South 9.2mph /  14.8km/h 15.2mph /  24.5km/h 41% 0.00in /  0mm
17:55 67.5 °F /  19.7 °C 43.0 °F /  6.1 °C 30.11in /  1019.5hPa SSE 7.6mph /  12.2km/h 15.2mph /  24.5km/h 41% 0.00in /  0mm
17:59 67.3 °F /  19.6 °C 43.4 °F /  6.3 °C 30.11in /  1019.5hPa SSE 7.6mph /  12.2km/h 15.2mph /  24.5km/h 42% 0.00in /  0mm
18:04 67.1 °F /  19.5 °C 43.3 °F /  6.3 °C 30.11in /  1019.5hPa SSE 3.8mph /  6.1km/h 15.2mph /  24.5km/h 42% 0.00in /  0mm
18:09 66.6 °F /  19.2 °C 42.8 °F /  6 °C 30.11in /  1019.5hPa SSE 7.6mph /  12.2km/h 14.5mph /  23.3km/h 42% 0.00in /  0mm
18:14 66.6 °F /  19.2 °C 44.6 °F /  7 °C 30.11in /  1019.5hPa SSE 12.1mph /  19.5km/h 16.8mph /  27km/h 45% 0.00in /  0mm
18:19 66.6 °F /  19.2 °C 44.0 °F /  6.7 °C 30.11in /  1019.5hPa SSE 10.7mph /  17.2km/h 16.8mph /  27km/h 44% 0.00in /  0mm
18:24 65.8 °F /  18.8 °C 42.7 °F /  5.9 °C 30.12in /  1019.9hPa South 7.6mph /  12.2km/h 16.8mph /  27km/h 43% 0.00in /  0mm
18:29 65.5 °F /  18.6 °C 42.4 °F /  5.8 °C 30.11in /  1019.5hPa South 6.9mph /  11.1km/h 15.2mph /  24.5km/h 43% 0.00in /  0mm
18:34 66.2 °F /  19 °C 43.1 °F /  6.2 °C 30.11in /  1019.5hPa SSE 5.4mph /  8.7km/h 15.2mph /  24.5km/h 43% 0.00in /  0mm
18:39 66.0 °F /  18.9 °C 43.5 °F /  6.4 °C 30.12in /  1019.9hPa SSE 6.9mph /  11.1km/h 14.5mph /  23.3km/h 44% 0.00in /  0mm
18:44 65.1 °F /  18.4 °C 42.1 °F /  5.6 °C 30.12in /  1019.9hPa SSE 3.8mph /  6.1km/h 14.5mph /  23.3km/h 43% 0.00in /  0mm
18:50 64.9 °F /  18.3 °C 42.5 °F /  5.8 °C 30.12in /  1019.9hPa SSE 4.5mph /  7.2km/h 13.6mph /  21.9km/h 44% 0.00in /  0mm
18:54 64.6 °F /  18.1 °C 42.8 °F /  6 °C 30.12in /  1019.9hPa South 6.0mph /  9.7km/h 13.6mph /  21.9km/h 45% 0.00in /  0mm
19:00 64.4 °F /  18 °C 42.6 °F /  5.9 °C 30.13in /  1020.2hPa South 4.5mph /  7.2km/h 13.6mph /  21.9km/h 45% 0.00in /  0mm
19:04 63.9 °F /  17.7 °C 42.7 °F /  5.9 °C 30.12in /  1019.9hPa SSE 4.5mph /  7.2km/h 13.6mph /  21.9km/h 46% 0.00in /  0mm
19:10 63.7 °F /  17.6 °C 43.1 °F /  6.2 °C 30.12in /  1019.9hPa SE 5.4mph /  8.7km/h 12.1mph /  19.5km/h 47% 0.00in /  0mm
19:15 63.5 °F /  17.5 °C 42.4 °F /  5.8 °C 30.13in /  1020.2hPa SE 10.7mph /  17.2km/h 13.6mph /  21.9km/h 46% 0.00in /  0mm
19:19 62.6 °F /  17 °C 40.4 °F /  4.7 °C 30.13in /  1020.2hPa SSE 11.4mph /  18.3km/h 18.3mph /  29.5km/h 44% 0.00in /  0mm
19:24 62.2 °F /  16.8 °C 41.2 °F /  5.1 °C 30.13in /  1020.2hPa SSE 8.3mph /  13.4km/h 18.3mph /  29.5km/h 46% 0.00in /  0mm
19:29 61.5 °F /  16.4 °C 42.2 °F /  5.7 °C 30.13in /  1020.2hPa SSE 6.0mph /  9.7km/h 15.9mph /  25.6km/h 49% 0.00in /  0mm
19:33 60.6 °F /  15.9 °C 42.4 °F /  5.8 °C 30.13in /  1020.2hPa SSE 6.9mph /  11.1km/h 13.0mph /  20.9km/h 51% 0.00in /  0mm
19:40 59.4 °F /  15.2 °C 41.7 °F /  5.4 °C 30.14in /  1020.5hPa SSE 5.4mph /  8.7km/h 10.7mph /  17.2km/h 52% 0.00in /  0mm
19:45 59.4 °F /  15.2 °C 42.2 °F /  5.7 °C 30.14in /  1020.5hPa SSE 5.4mph /  8.7km/h 11.4mph /  18.3km/h 53% 0.00in /  0mm
19:50 59.2 °F /  15.1 °C 42.6 °F /  5.9 °C 30.14in /  1020.5hPa SSE 6.0mph /  9.7km/h 12.1mph /  19.5km/h 54% 0.00in /  0mm
19:54 58.8 °F /  14.9 °C 42.7 °F /  5.9 °C 30.14in /  1020.5hPa SSE 3.8mph /  6.1km/h 13.0mph /  20.9km/h 55% 0.00in /  0mm
20:00 58.5 °F /  14.7 °C 43.3 °F /  6.3 °C 30.14in /  1020.5hPa South 6.9mph /  11.1km/h 14.5mph /  23.3km/h 57% 0.00in /  0mm
20:05 58.1 °F /  14.5 °C 43.9 °F /  6.6 °C 30.15in /  1020.9hPa South 6.0mph /  9.7km/h 14.5mph /  23.3km/h 59% 0.00in /  0mm
20:10 57.7 °F /  14.3 °C 44.4 °F /  6.9 °C 30.14in /  1020.5hPa SSE 4.5mph /  7.2km/h 12.1mph /  19.5km/h 61% 0.00in /  0mm
20:14 57.6 °F /  14.2 °C 44.2 °F /  6.8 °C 30.15in /  1020.9hPa SSE 6.0mph /  9.7km/h 12.1mph /  19.5km/h 61% 0.00in /  0mm
20:20 57.2 °F /  14 °C 44.7 °F /  7.1 °C 30.15in /  1020.9hPa SSE 3.8mph /  6.1km/h 10.7mph /  17.2km/h 63% 0.00in /  0mm
20:25 57.0 °F /  13.9 °C 45.4 °F /  7.4 °C 30.15in /  1020.9hPa SSE 6.0mph /  9.7km/h 16.8mph /  27km/h 65% 0.00in /  0mm
20:30 56.7 °F /  13.7 °C 45.4 °F /  7.4 °C 30.15in /  1020.9hPa SSE 7.6mph /  12.2km/h 16.8mph /  27km/h 66% 0.00in /  0mm
20:35 56.5 °F /  13.6 °C 45.7 °F /  7.6 °C 30.15in /  1020.9hPa South 3.8mph /  6.1km/h 14.5mph /  23.3km/h 67% 0.00in /  0mm
20:40 56.3 °F /  13.5 °C 45.9 °F /  7.7 °C 30.16in /  1021.2hPa SSE 6.9mph /  11.1km/h 14.5mph /  23.3km/h 68% 0.00in /  0mm
20:45 56.1 °F /  13.4 °C 46.1 °F /  7.8 °C 30.16in /  1021.2hPa SSE 5.4mph /  8.7km/h 14.5mph /  23.3km/h 69% 0.00in /  0mm
20:49 55.9 °F /  13.3 °C 46.3 °F /  7.9 °C 30.15in /  1020.9hPa SSE 6.9mph /  11.1km/h 14.5mph /  23.3km/h 70% 0.00in /  0mm
20:54 55.8 °F /  13.2 °C 46.1 °F /  7.8 °C 30.16in /  1021.2hPa SSE 6.0mph /  9.7km/h 14.5mph /  23.3km/h 70% 0.00in /  0mm
21:00 55.6 °F /  13.1 °C 46.0 °F /  7.8 °C 30.16in /  1021.2hPa SSE 5.4mph /  8.7km/h 14.5mph /  23.3km/h 70% 0.00in /  0mm
21:05 55.4 °F /  13 °C 45.8 °F /  7.7 °C 30.16in /  1021.2hPa SSE 5.4mph /  8.7km/h 12.1mph /  19.5km/h 70% 0.00in /  0mm
21:09 55.2 °F /  12.9 °C 45.2 °F /  7.3 °C 30.16in /  1021.2hPa South 3.8mph /  6.1km/h 12.1mph /  19.5km/h 69% 0.00in /  0mm
21:14 53.6 °F /  12 °C 43.7 °F /  6.5 °C 30.16in /  1021.2hPa SSE 7.6mph /  12.2km/h 13.0mph /  20.9km/h 69% 0.00in /  0mm
21:20 53.6 °F /  12 °C 43.7 °F /  6.5 °C 30.16in /  1021.2hPa SSE 5.4mph /  8.7km/h 14.5mph /  23.3km/h 69% 0.00in /  0mm
21:25 53.4 °F /  11.9 °C 43.9 °F /  6.6 °C 30.16in /  1021.2hPa SSE 3.8mph /  6.1km/h 14.5mph /  23.3km/h 70% 0.00in /  0mm
21:30 53.4 °F /  11.9 °C 43.9 °F /  6.6 °C 30.17in /  1021.6hPa South 6.0mph /  9.7km/h 14.5mph /  23.3km/h 70% 0.00in /  0mm
21:35 53.2 °F /  11.8 °C 44.1 °F /  6.7 °C 30.17in /  1021.6hPa South 5.4mph /  8.7km/h 14.5mph /  23.3km/h 71% 0.00in /  0mm
21:40 53.2 °F /  11.8 °C 44.1 °F /  6.7 °C 30.17in /  1021.6hPa South 6.9mph /  11.1km/h 11.4mph /  18.3km/h 71% 0.00in /  0mm
21:45 53.2 °F /  11.8 °C 44.5 °F /  6.9 °C 30.18in /  1021.9hPa SSE 5.4mph /  8.7km/h 12.1mph /  19.5km/h 72% 0.00in /  0mm
21:50 53.1 °F /  11.7 °C 44.3 °F /  6.8 °C 30.18in /  1021.9hPa SSE 3.8mph /  6.1km/h 12.1mph /  19.5km/h 72% 0.00in /  0mm
21:54 52.9 °F /  11.6 °C 44.1 °F /  6.7 °C 30.18in /  1021.9hPa SSE 6.9mph /  11.1km/h 10.7mph /  17.2km/h 72% 0.00in /  0mm
22:00 53.1 °F /  11.7 °C 44.6 °F /  7 °C 30.18in /  1021.9hPa SSE 5.4mph /  8.7km/h 12.1mph /  19.5km/h 73% 0.00in /  0mm
22:04 52.9 °F /  11.6 °C 44.1 °F /  6.7 °C 30.19in /  1022.2hPa SSE 7.6mph /  12.2km/h 12.1mph /  19.5km/h 72% 0.00in /  0mm
22:09 52.9 °F /  11.6 °C 44.1 °F /  6.7 °C 30.19in /  1022.2hPa SSE 3.8mph /  6.1km/h 12.1mph /  19.5km/h 72% 0.00in /  0mm
22:15 52.9 °F /  11.6 °C 44.1 °F /  6.7 °C 30.19in /  1022.2hPa SSE 5.4mph /  8.7km/h 11.4mph /  18.3km/h 72% 0.00in /  0mm
22:19 53.1 °F /  11.7 °C 44.3 °F /  6.8 °C 30.19in /  1022.2hPa SSE 6.9mph /  11.1km/h 12.1mph /  19.5km/h 72% 0.00in /  0mm
22:25 53.2 °F /  11.8 °C 44.5 °F /  6.9 °C 30.19in /  1022.2hPa SSE 5.4mph /  8.7km/h 12.1mph /  19.5km/h 72% 0.00in /  0mm
22:29 53.4 °F /  11.9 °C 44.6 °F /  7 °C 30.19in /  1022.2hPa SSE 6.0mph /  9.7km/h 14.5mph /  23.3km/h 72% 0.00in /  0mm
22:35 53.4 °F /  11.9 °C 44.3 °F /  6.8 °C 30.19in /  1022.2hPa SSE 5.4mph /  8.7km/h 15.2mph /  24.5km/h 71% 0.00in /  0mm
22:40 53.4 °F /  11.9 °C 44.3 °F /  6.8 °C 30.19in /  1022.2hPa SSE 6.0mph /  9.7km/h 15.2mph /  24.5km/h 71% 0.00in /  0mm
22:45 53.4 °F /  11.9 °C 44.3 °F /  6.8 °C 30.19in /  1022.2hPa SSE 4.5mph /  7.2km/h 12.1mph /  19.5km/h 71% 0.00in /  0mm
22:49 53.2 °F /  11.8 °C 44.1 °F /  6.7 °C 30.19in /  1022.2hPa SSE 6.0mph /  9.7km/h 13.0mph /  20.9km/h 71% 0.00in /  0mm
22:54 53.2 °F /  11.8 °C 44.1 °F /  6.7 °C 30.19in /  1022.2hPa SSE 5.4mph /  8.7km/h 13.0mph /  20.9km/h 71% 0.00in /  0mm
22:59 53.4 °F /  11.9 °C 44.3 °F /  6.8 °C 30.19in /  1022.2hPa SSE 4.5mph /  7.2km/h 11.4mph /  18.3km/h 71% 0.00in /  0mm
23:04 53.4 °F /  11.9 °C 44.3 °F /  6.8 °C 30.19in /  1022.2hPa SSE 5.4mph /  8.7km/h 14.5mph /  23.3km/h 71% 0.00in /  0mm
23:10 53.4 °F /  11.9 °C 44.3 °F /  6.8 °C 30.19in /  1022.2hPa SSE 6.0mph /  9.7km/h 14.5mph /  23.3km/h 71% 0.00in /  0mm
23:14 53.4 °F /  11.9 °C 44.3 °F /  6.8 °C 30.19in /  1022.2hPa SSE 6.0mph /  9.7km/h 12.1mph /  19.5km/h 71% 0.00in /  0mm
23:20 53.4 °F /  11.9 °C 44.3 °F /  6.8 °C 30.20in /  1022.6hPa SSE 5.4mph /  8.7km/h 12.1mph /  19.5km/h 71% 0.00in /  0mm
23:25 53.2 °F /  11.8 °C 44.1 °F /  6.7 °C 30.20in /  1022.6hPa SSE 4.5mph /  7.2km/h 9.8mph /  15.8km/h 71% 0.00in /  0mm
23:30 53.2 °F /  11.8 °C 44.5 °F /  6.9 °C 30.20in /  1022.6hPa SSE 5.4mph /  8.7km/h 10.7mph /  17.2km/h 72% 0.00in /  0mm
23:35 53.4 °F /  11.9 °C 44.6 °F /  7 °C 30.19in /  1022.2hPa SSE 3.8mph /  6.1km/h 11.4mph /  18.3km/h 72% 0.00in /  0mm
23:39 53.4 °F /  11.9 °C 44.6 °F /  7 °C 30.20in /  1022.6hPa SE 4.5mph /  7.2km/h 11.4mph /  18.3km/h 72% 0.00in /  0mm
23:44 53.2 °F /  11.8 °C 44.5 °F /  6.9 °C 30.19in /  1022.2hPa SSE 8.3mph /  13.4km/h 10.7mph /  17.2km/h 72% 0.00in /  0mm
23:49 53.2 °F /  11.8 °C 44.5 °F /  6.9 °C 30.20in /  1022.6hPa SSE 6.9mph /  11.1km/h 10.7mph /  17.2km/h 72% 0.00in /  0mm
23:55 53.4 °F /  11.9 °C 44.6 °F /  7 °C 30.19in /  1022.2hPa SSE 3.8mph /  6.1km/h 9.8mph /  15.8km/h 72% 0.00in /  0mm
23:59 53.4 °F /  11.9 °C 44.6 °F /  7 °C 30.19in /  1022.2hPa South 3.1mph /  5km/h 13.6mph /  21.9km/h 72% 0.00in /  0mm
Waitara, Taranaki. New Zealand Historic Data
Compliments of Weather Underground - 2 mb